This is the latest recevied weather packets stored in our database for station/object DH0GMA. If no packets are shown the sender has not sent any weather packets the latest 10 day(s).
| Time | Temp. | Humidity | Pressure | Rain* | Wind** | Luminosity | Snow |
|---|---|---|---|---|---|---|---|
| 1777500757 | 9.44° C | 44% | 1023.3 hPa | 0 mm | - | - | - |
| 1777500157 | 10° C | 44% | 1023.2 hPa | 0 mm | - | - | - |
| 1777497756 | 10.56° C | 44% | 1022.7 hPa | 0 mm | - | - | - |
| 1777497156 | 10.56° C | 43% | 1022.8 hPa | 0 mm | - | - | - |
| 1777496556 | 11.11° C | 42% | 1022.7 hPa | 0 mm | - | - | - |
| 1777494755 | 11.67° C | 41% | 1022.6 hPa | 0 mm | - | - | - |
| 1777494157 | 11.67° C | 41% | 1022.4 hPa | 0 mm | - | - | - |
| 1777493557 | 11.67° C | 41% | 1022.3 hPa | 0 mm | - | - | - |
| 1777492957 | 12.22° C | 41% | 1022.1 hPa | 0 mm | - | - | - |
| 1777492357 | 12.22° C | 41% | 1022 hPa | 0 mm | - | - | - |
| 1777491156 | 12.22° C | 40% | 1021.9 hPa | 0 mm | - | - | - |
| 1777490556 | 12.22° C | 40% | 1021.7 hPa | 0 mm | - | - | - |
| 1777489956 | 12.22° C | 40% | 1021.5 hPa | 0 mm | - | - | - |
| 1777488757 | 13.33° C | 39% | 1021.2 hPa | 0 mm | - | - | - |
| 1777486355 | 14.44° C | 37% | 1020.7 hPa | 0 mm | - | - | - |
| 1777483955 | 15.56° C | 36% | 1020.3 hPa | 0 mm | - | - | - |
| 1777482755 | 16.11° C | 37% | 1020.1 hPa | 0 mm | - | - | - |
| 1777480356 | 16.67° C | 37% | 1019.6 hPa | 0 mm | - | - | - |
| 1777479755 | 17.22° C | 38% | 1019.7 hPa | 0 mm | - | - | - |
| 1777479157 | 17.22° C | 39% | 1019.6 hPa | 0 mm | - | - | - |
| 1777478557 | 17.22° C | 37% | 1019.5 hPa | 0 mm | - | - | - |
| 1777477957 | 17.78° C | 38% | 1019.6 hPa | 0 mm | - | - | - |
| 1777476756 | 17.78° C | 39% | 1019.5 hPa | 0 mm | - | - | - |
| 1777475556 | 17.78° C | 39% | 1019.3 hPa | 0 mm | - | - | - |
| 1777474956 | 17.78° C | 39% | 1019.3 hPa | 0 mm | - | - | - |
* Rain latest hour (hover to see other rain measurements)
** Current wind speed in m/s (hover to see current wind gust speed)